sensor_id;sensor_type;location;lat;lon;timestamp;P1;durP1;ratioP1;P2;durP2;ratioP2
287;SDS011;128;48.770;9.198;2024-03-07T00:02:08;91.93;;;35.80;;
287;SDS011;128;48.770;9.198;2024-03-07T00:04:34;84.50;;;33.37;;
287;SDS011;128;48.770;9.198;2024-03-07T00:07:03;86.77;;;34.50;;
287;SDS011;128;48.770;9.198;2024-03-07T00:09:31;86.67;;;35.77;;
287;SDS011;128;48.770;9.198;2024-03-07T00:11:58;96.40;;;35.70;;
287;SDS011;128;48.770;9.198;2024-03-07T00:14:24;93.87;;;36.10;;
287;SDS011;128;48.770;9.198;2024-03-07T00:16:56;87.73;;;34.53;;
287;SDS011;128;48.770;9.198;2024-03-07T00:19:24;92.10;;;35.90;;
287;SDS011;128;48.770;9.198;2024-03-07T00:21:52;90.73;;;38.43;;
287;SDS011;128;48.770;9.198;2024-03-07T00:24:18;101.10;;;37.07;;
287;SDS011;128;48.770;9.198;2024-03-07T00:26:44;89.57;;;33.63;;
287;SDS011;128;48.770;9.198;2024-03-07T00:29:10;95.40;;;38.97;;
287;SDS011;128;48.770;9.198;2024-03-07T00:31:36;88.80;;;34.70;;
287;SDS011;128;48.770;9.198;2024-03-07T00:34:02;94.97;;;39.97;;
287;SDS011;128;48.770;9.198;2024-03-07T00:36:28;107.93;;;38.10;;
287;SDS011;128;48.770;9.198;2024-03-07T00:38:54;109.63;;;39.17;;
287;SDS011;128;48.770;9.198;2024-03-07T00:41:20;94.67;;;36.20;;
287;SDS011;128;48.770;9.198;2024-03-07T00:43:46;97.77;;;39.40;;
287;SDS011;128;48.770;9.198;2024-03-07T00:46:12;94.20;;;37.40;;
287;SDS011;128;48.770;9.198;2024-03-07T00:48:38;96.90;;;38.30;;
287;SDS011;128;48.770;9.198;2024-03-07T00:51:04;98.30;;;37.77;;
287;SDS011;128;48.770;9.198;2024-03-07T00:53:30;105.83;;;37.67;;
287;SDS011;128;48.770;9.198;2024-03-07T00:55:57;102.60;;;38.43;;
287;SDS011;128;48.770;9.198;2024-03-07T00:58:23;110.67;;;42.83;;
287;SDS011;128;48.770;9.198;2024-03-07T01:00:49;98.83;;;39.87;;
287;SDS011;128;48.770;9.198;2024-03-07T01:03:15;94.07;;;38.17;;
287;SDS011;128;48.770;9.198;2024-03-07T01:05:42;106.30;;;39.07;;
287;SDS011;128;48.770;9.198;2024-03-07T01:08:08;112.40;;;42.23;;
287;SDS011;128;48.770;9.198;2024-03-07T01:10:34;101.47;;;39.27;;
287;SDS011;128;48.770;9.198;2024-03-07T01:13:00;107.03;;;42.30;;
287;SDS011;128;48.770;9.198;2024-03-07T01:15:27;109.57;;;43.23;;
287;SDS011;128;48.770;9.198;2024-03-07T01:17:53;110.03;;;43.57;;
287;SDS011;128;48.770;9.198;2024-03-07T01:20:19;108.57;;;41.17;;
287;SDS011;128;48.770;9.198;2024-03-07T01:22:45;114.67;;;42.77;;
287;SDS011;128;48.770;9.198;2024-03-07T01:25:11;130.70;;;45.63;;
287;SDS011;128;48.770;9.198;2024-03-07T01:27:37;109.50;;;43.57;;
287;SDS011;128;48.770;9.198;2024-03-07T01:30:04;121.17;;;45.20;;
287;SDS011;128;48.770;9.198;2024-03-07T01:32:32;116.57;;;44.37;;
287;SDS011;128;48.770;9.198;2024-03-07T01:34:58;109.70;;;43.37;;
287;SDS011;128;48.770;9.198;2024-03-07T01:37:24;109.13;;;42.80;;
287;SDS011;128;48.770;9.198;2024-03-07T01:39:50;120.30;;;44.60;;
287;SDS011;128;48.770;9.198;2024-03-07T01:42:16;103.93;;;44.40;;
287;SDS011;128;48.770;9.198;2024-03-07T01:44:42;114.53;;;43.60;;
287;SDS011;128;48.770;9.198;2024-03-07T01:47:09;127.37;;;45.67;;
287;SDS011;128;48.770;9.198;2024-03-07T01:49:35;112.77;;;44.20;;
287;SDS011;128;48.770;9.198;2024-03-07T01:52:03;113.77;;;42.47;;
287;SDS011;128;48.770;9.198;2024-03-07T01:54:30;114.67;;;45.30;;
287;SDS011;128;48.770;9.198;2024-03-07T01:56:56;96.33;;;43.47;;
287;SDS011;128;48.770;9.198;2024-03-07T01:59:23;116.53;;;44.23;;
287;SDS011;128;48.770;9.198;2024-03-07T02:01:50;109.30;;;42.53;;
287;SDS011;128;48.770;9.198;2024-03-07T02:04:16;106.23;;;40.33;;
287;SDS011;128;48.770;9.198;2024-03-07T02:06:42;108.23;;;43.40;;
287;SDS011;128;48.770;9.198;2024-03-07T02:09:08;105.20;;;38.50;;
287;SDS011;128;48.770;9.198;2024-03-07T02:11:34;100.10;;;38.87;;
287;SDS011;128;48.770;9.198;2024-03-07T02:14:00;101.50;;;40.77;;
287;SDS011;128;48.770;9.198;2024-03-07T02:16:26;96.50;;;39.10;;
287;SDS011;128;48.770;9.198;2024-03-07T02:18:52;100.00;;;38.43;;
287;SDS011;128;48.770;9.198;2024-03-07T02:21:20;101.50;;;38.93;;
287;SDS011;128;48.770;9.198;2024-03-07T02:23:46;98.13;;;39.00;;
287;SDS011;128;48.770;9.198;2024-03-07T02:26:12;98.63;;;38.07;;
287;SDS011;128;48.770;9.198;2024-03-07T02:28:38;100.23;;;39.77;;
287;SDS011;128;48.770;9.198;2024-03-07T02:31:04;99.43;;;41.93;;
287;SDS011;128;48.770;9.198;2024-03-07T02:33:30;100.30;;;40.43;;
287;SDS011;128;48.770;9.198;2024-03-07T02:35:57;106.93;;;42.73;;
287;SDS011;128;48.770;9.198;2024-03-07T02:38:23;96.67;;;38.53;;
287;SDS011;128;48.770;9.198;2024-03-07T02:40:49;91.30;;;37.20;;
287;SDS011;128;48.770;9.198;2024-03-07T02:43:15;124.10;;;40.60;;
287;SDS011;128;48.770;9.198;2024-03-07T02:45:41;102.53;;;37.97;;
287;SDS011;128;48.770;9.198;2024-03-07T02:48:07;98.80;;;39.87;;
287;SDS011;128;48.770;9.198;2024-03-07T02:50:37;107.23;;;40.60;;
287;SDS011;128;48.770;9.198;2024-03-07T02:53:03;94.67;;;37.97;;
287;SDS011;128;48.770;9.198;2024-03-07T02:55:29;83.57;;;36.03;;
287;SDS011;128;48.770;9.198;2024-03-07T02:57:55;101.43;;;37.83;;
287;SDS011;128;48.770;9.198;2024-03-07T03:00:23;99.30;;;40.83;;
287;SDS011;128;48.770;9.198;2024-03-07T03:02:54;101.90;;;42.67;;
287;SDS011;128;48.770;9.198;2024-03-07T03:05:21;111.53;;;43.60;;
287;SDS011;128;48.770;9.198;2024-03-07T03:07:47;103.47;;;39.70;;
287;SDS011;128;48.770;9.198;2024-03-07T03:10:19;107.20;;;39.90;;
287;SDS011;128;48.770;9.198;2024-03-07T03:12:46;106.83;;;45.40;;
287;SDS011;128;48.770;9.198;2024-03-07T03:15:12;100.50;;;42.60;;
287;SDS011;128;48.770;9.198;2024-03-07T03:17:40;118.83;;;44.30;;
287;SDS011;128;48.770;9.198;2024-03-07T03:20:06;117.73;;;43.43;;
287;SDS011;128;48.770;9.198;2024-03-07T03:22:40;118.67;;;43.90;;
287;SDS011;128;48.770;9.198;2024-03-07T03:25:08;105.47;;;43.73;;
287;SDS011;128;48.770;9.198;2024-03-07T03:27:35;115.63;;;46.70;;
287;SDS011;128;48.770;9.198;2024-03-07T03:30:02;114.80;;;42.47;;
287;SDS011;128;48.770;9.198;2024-03-07T03:32:29;115.37;;;43.93;;
287;SDS011;128;48.770;9.198;2024-03-07T03:34:55;100.47;;;42.57;;
287;SDS011;128;48.770;9.198;2024-03-07T03:37:21;106.23;;;42.93;;
287;SDS011;128;48.770;9.198;2024-03-07T03:39:46;115.30;;;45.37;;
287;SDS011;128;48.770;9.198;2024-03-07T03:42:12;104.73;;;43.13;;
287;SDS011;128;48.770;9.198;2024-03-07T03:44:38;106.57;;;43.50;;
287;SDS011;128;48.770;9.198;2024-03-07T03:47:04;114.20;;;45.27;;
287;SDS011;128;48.770;9.198;2024-03-07T03:49:30;108.70;;;45.20;;
287;SDS011;128;48.770;9.198;2024-03-07T03:51:57;111.07;;;43.40;;
287;SDS011;128;48.770;9.198;2024-03-07T03:54:23;111.20;;;43.30;;
287;SDS011;128;48.770;9.198;2024-03-07T03:56:49;111.90;;;43.97;;
287;SDS011;128;48.770;9.198;2024-03-07T03:59:15;119.60;;;48.93;;
287;SDS011;128;48.770;9.198;2024-03-07T04:01:41;117.60;;;45.37;;
287;SDS011;128;48.770;9.198;2024-03-07T04:04:07;109.63;;;45.10;;
287;SDS011;128;48.770;9.198;2024-03-07T04:06:34;114.30;;;45.37;;
287;SDS011;128;48.770;9.198;2024-03-07T04:09:00;142.73;;;51.10;;
287;SDS011;128;48.770;9.198;2024-03-07T04:11:26;114.77;;;45.33;;
287;SDS011;128;48.770;9.198;2024-03-07T04:13:52;120.80;;;47.50;;
287;SDS011;128;48.770;9.198;2024-03-07T04:16:18;120.40;;;44.60;;
287;SDS011;128;48.770;9.198;2024-03-07T04:18:44;112.00;;;44.77;;
287;SDS011;128;48.770;9.198;2024-03-07T04:21:10;123.07;;;49.10;;
287;SDS011;128;48.770;9.198;2024-03-07T04:23:35;112.93;;;48.40;;
287;SDS011;128;48.770;9.198;2024-03-07T04:26:03;112.97;;;47.30;;
287;SDS011;128;48.770;9.198;2024-03-07T04:28:29;121.70;;;48.27;;
287;SDS011;128;48.770;9.198;2024-03-07T04:30:55;124.47;;;46.83;;
287;SDS011;128;48.770;9.198;2024-03-07T04:33:21;113.17;;;45.70;;
287;SDS011;128;48.770;9.198;2024-03-07T04:35:48;116.93;;;47.57;;
287;SDS011;128;48.770;9.198;2024-03-07T04:38:14;121.60;;;47.67;;
287;SDS011;128;48.770;9.198;2024-03-07T04:40:41;110.30;;;45.77;;
287;SDS011;128;48.770;9.198;2024-03-07T04:43:07;111.77;;;46.03;;
287;SDS011;128;48.770;9.198;2024-03-07T04:45:33;123.07;;;47.17;;
287;SDS011;128;48.770;9.198;2024-03-07T04:47:59;119.73;;;47.03;;
287;SDS011;128;48.770;9.198;2024-03-07T04:50:25;103.17;;;44.17;;
287;SDS011;128;48.770;9.198;2024-03-07T04:52:51;112.27;;;44.10;;
287;SDS011;128;48.770;9.198;2024-03-07T04:55:17;102.83;;;42.87;;
287;SDS011;128;48.770;9.198;2024-03-07T04:57:43;114.33;;;43.50;;
287;SDS011;128;48.770;9.198;2024-03-07T05:00:10;113.53;;;43.57;;
287;SDS011;128;48.770;9.198;2024-03-07T05:02:42;123.30;;;45.57;;
287;SDS011;128;48.770;9.198;2024-03-07T05:05:08;115.57;;;42.87;;
287;SDS011;128;48.770;9.198;2024-03-07T05:07:34;108.37;;;43.20;;
287;SDS011;128;48.770;9.198;2024-03-07T05:10:03;104.77;;;42.23;;
287;SDS011;128;48.770;9.198;2024-03-07T05:12:29;91.77;;;40.27;;
287;SDS011;128;48.770;9.198;2024-03-07T05:14:55;105.73;;;42.90;;
287;SDS011;128;48.770;9.198;2024-03-07T05:17:21;93.50;;;38.57;;
287;SDS011;128;48.770;9.198;2024-03-07T05:19:47;121.73;;;42.80;;
287;SDS011;128;48.770;9.198;2024-03-07T05:22:14;105.47;;;43.77;;
287;SDS011;128;48.770;9.198;2024-03-07T05:24:41;101.40;;;43.50;;
287;SDS011;128;48.770;9.198;2024-03-07T05:27:10;103.17;;;44.17;;
287;SDS011;128;48.770;9.198;2024-03-07T05:29:37;104.17;;;43.97;;
287;SDS011;128;48.770;9.198;2024-03-07T05:32:21;102.67;;;43.10;;
287;SDS011;128;48.770;9.198;2024-03-07T05:34:48;105.67;;;41.00;;
287;SDS011;128;48.770;9.198;2024-03-07T05:37:14;90.93;;;39.83;;
287;SDS011;128;48.770;9.198;2024-03-07T05:39:40;104.77;;;41.87;;
287;SDS011;128;48.770;9.198;2024-03-07T05:42:06;108.50;;;43.07;;
287;SDS011;128;48.770;9.198;2024-03-07T05:44:32;98.50;;;41.33;;
287;SDS011;128;48.770;9.198;2024-03-07T05:46:58;111.07;;;45.33;;
287;SDS011;128;48.770;9.198;2024-03-07T05:49:24;119.03;;;44.17;;
287;SDS011;128;48.770;9.198;2024-03-07T05:51:50;121.33;;;43.37;;
287;SDS011;128;48.770;9.198;2024-03-07T05:54:16;108.20;;;43.90;;
287;SDS011;128;48.770;9.198;2024-03-07T05:56:42;101.37;;;41.83;;
287;SDS011;128;48.770;9.198;2024-03-07T05:59:08;105.80;;;46.47;;
287;SDS011;128;48.770;9.198;2024-03-07T06:01:38;126.70;;;46.83;;
287;SDS011;128;48.770;9.198;2024-03-07T06:04:05;122.10;;;44.70;;
287;SDS011;128;48.770;9.198;2024-03-07T06:06:32;115.33;;;45.90;;
287;SDS011;128;48.770;9.198;2024-03-07T06:09:00;118.57;;;47.20;;
287;SDS011;128;48.770;9.198;2024-03-07T06:11:26;110.50;;;47.07;;
287;SDS011;128;48.770;9.198;2024-03-07T06:13:52;129.53;;;45.37;;
287;SDS011;128;48.770;9.198;2024-03-07T06:16:18;120.67;;;48.73;;
287;SDS011;128;48.770;9.198;2024-03-07T06:18:45;123.27;;;46.67;;
287;SDS011;128;48.770;9.198;2024-03-07T06:21:12;113.50;;;43.57;;
287;SDS011;128;48.770;9.198;2024-03-07T06:23:38;107.70;;;44.27;;
287;SDS011;128;48.770;9.198;2024-03-07T06:26:04;114.83;;;47.60;;
287;SDS011;128;48.770;9.198;2024-03-07T06:28:38;117.30;;;45.23;;
287;SDS011;128;48.770;9.198;2024-03-07T06:31:04;110.90;;;46.37;;
287;SDS011;128;48.770;9.198;2024-03-07T06:33:32;119.90;;;46.47;;
287;SDS011;128;48.770;9.198;2024-03-07T06:35:58;137.07;;;51.00;;
287;SDS011;128;48.770;9.198;2024-03-07T06:38:26;118.93;;;47.77;;
287;SDS011;128;48.770;9.198;2024-03-07T06:40:52;120.47;;;48.80;;
287;SDS011;128;48.770;9.198;2024-03-07T06:43:18;129.00;;;45.97;;
287;SDS011;128;48.770;9.198;2024-03-07T06:45:44;123.33;;;46.97;;
287;SDS011;128;48.770;9.198;2024-03-07T06:48:11;116.60;;;46.37;;
287;SDS011;128;48.770;9.198;2024-03-07T06:50:39;123.37;;;46.43;;
287;SDS011;128;48.770;9.198;2024-03-07T06:53:05;123.90;;;44.80;;
287;SDS011;128;48.770;9.198;2024-03-07T06:55:31;131.27;;;43.97;;
287;SDS011;128;48.770;9.198;2024-03-07T06:57:59;112.37;;;43.93;;
287;SDS011;128;48.770;9.198;2024-03-07T07:00:25;111.93;;;43.50;;
287;SDS011;128;48.770;9.198;2024-03-07T07:02:51;106.27;;;40.83;;
287;SDS011;128;48.770;9.198;2024-03-07T07:05:21;107.87;;;43.87;;
287;SDS011;128;48.770;9.198;2024-03-07T07:07:48;91.97;;;40.40;;
287;SDS011;128;48.770;9.198;2024-03-07T07:10:14;100.07;;;41.47;;
287;SDS011;128;48.770;9.198;2024-03-07T07:12:46;104.47;;;41.80;;
287;SDS011;128;48.770;9.198;2024-03-07T07:15:16;100.30;;;40.87;;
287;SDS011;128;48.770;9.198;2024-03-07T07:17:43;103.20;;;41.90;;
287;SDS011;128;48.770;9.198;2024-03-07T07:20:11;97.20;;;40.43;;
287;SDS011;128;48.770;9.198;2024-03-07T07:22:40;96.40;;;38.67;;
287;SDS011;128;48.770;9.198;2024-03-07T07:25:06;100.47;;;43.00;;
287;SDS011;128;48.770;9.198;2024-03-07T07:27:40;103.07;;;43.37;;
287;SDS011;128;48.770;9.198;2024-03-07T07:30:07;100.73;;;40.03;;
287;SDS011;128;48.770;9.198;2024-03-07T07:32:33;89.60;;;39.93;;
287;SDS011;128;48.770;9.198;2024-03-07T07:35:00;93.17;;;43.70;;
287;SDS011;128;48.770;9.198;2024-03-07T07:37:26;95.57;;;39.53;;
287;SDS011;128;48.770;9.198;2024-03-07T07:39:52;84.83;;;38.30;;
287;SDS011;128;48.770;9.198;2024-03-07T07:42:18;85.80;;;36.70;;
287;SDS011;128;48.770;9.198;2024-03-07T07:44:45;110.23;;;41.27;;
287;SDS011;128;48.770;9.198;2024-03-07T07:47:11;90.13;;;39.03;;
287;SDS011;128;48.770;9.198;2024-03-07T07:49:40;89.00;;;38.40;;
287;SDS011;128;48.770;9.198;2024-03-07T07:52:06;92.50;;;38.77;;
287;SDS011;128;48.770;9.198;2024-03-07T07:54:33;99.87;;;41.10;;
287;SDS011;128;48.770;9.198;2024-03-07T07:56:59;99.43;;;42.60;;
287;SDS011;128;48.770;9.198;2024-03-07T07:59:25;90.20;;;39.60;;
287;SDS011;128;48.770;9.198;2024-03-07T08:01:51;98.30;;;38.93;;
287;SDS011;128;48.770;9.198;2024-03-07T08:04:20;96.20;;;38.60;;
287;SDS011;128;48.770;9.198;2024-03-07T08:06:46;88.90;;;37.40;;
287;SDS011;128;48.770;9.198;2024-03-07T08:09:12;88.43;;;34.53;;
287;SDS011;128;48.770;9.198;2024-03-07T08:11:41;86.03;;;36.10;;
287;SDS011;128;48.770;9.198;2024-03-07T08:14:07;84.67;;;35.03;;
287;SDS011;128;48.770;9.198;2024-03-07T08:16:33;88.73;;;35.10;;
287;SDS011;128;48.770;9.198;2024-03-07T08:18:59;95.67;;;36.07;;
287;SDS011;128;48.770;9.198;2024-03-07T08:21:25;78.13;;;31.77;;
287;SDS011;128;48.770;9.198;2024-03-07T08:23:51;89.40;;;34.70;;
287;SDS011;128;48.770;9.198;2024-03-07T08:26:17;77.77;;;33.00;;
287;SDS011;128;48.770;9.198;2024-03-07T08:28:43;78.80;;;35.20;;
287;SDS011;128;48.770;9.198;2024-03-07T08:31:09;80.43;;;32.27;;
287;SDS011;128;48.770;9.198;2024-03-07T08:33:35;80.07;;;34.40;;
287;SDS011;128;48.770;9.198;2024-03-07T08:36:04;70.80;;;30.77;;
287;SDS011;128;48.770;9.198;2024-03-07T08:38:32;73.57;;;32.27;;
287;SDS011;128;48.770;9.198;2024-03-07T08:40:58;73.43;;;31.20;;
287;SDS011;128;48.770;9.198;2024-03-07T08:43:24;71.27;;;30.07;;
287;SDS011;128;48.770;9.198;2024-03-07T08:45:52;71.67;;;32.47;;
287;SDS011;128;48.770;9.198;2024-03-07T08:48:18;59.10;;;26.40;;
287;SDS011;128;48.770;9.198;2024-03-07T08:50:44;78.60;;;30.40;;
287;SDS011;128;48.770;9.198;2024-03-07T08:53:10;78.07;;;29.70;;
287;SDS011;128;48.770;9.198;2024-03-07T08:55:36;62.33;;;28.50;;
287;SDS011;128;48.770;9.198;2024-03-07T08:58:02;64.80;;;31.00;;
287;SDS011;128;48.770;9.198;2024-03-07T09:00:28;68.70;;;30.37;;
287;SDS011;128;48.770;9.198;2024-03-07T09:02:55;64.83;;;30.27;;
287;SDS011;128;48.770;9.198;2024-03-07T09:05:24;67.20;;;28.73;;
287;SDS011;128;48.770;9.198;2024-03-07T09:07:51;62.83;;;28.57;;
287;SDS011;128;48.770;9.198;2024-03-07T09:10:17;65.33;;;27.00;;
287;SDS011;128;48.770;9.198;2024-03-07T09:12:43;58.83;;;29.70;;
287;SDS011;128;48.770;9.198;2024-03-07T09:15:10;68.60;;;28.83;;
287;SDS011;128;48.770;9.198;2024-03-07T09:17:36;61.53;;;27.90;;
287;SDS011;128;48.770;9.198;2024-03-07T09:20:03;55.23;;;24.97;;
287;SDS011;128;48.770;9.198;2024-03-07T09:22:34;60.47;;;28.10;;
287;SDS011;128;48.770;9.198;2024-03-07T09:25:01;55.57;;;25.77;;
287;SDS011;128;48.770;9.198;2024-03-07T09:27:27;58.90;;;27.80;;
287;SDS011;128;48.770;9.198;2024-03-07T09:29:53;58.30;;;26.40;;
287;SDS011;128;48.770;9.198;2024-03-07T09:32:19;58.13;;;25.37;;
287;SDS011;128;48.770;9.198;2024-03-07T09:34:47;58.03;;;26.13;;
287;SDS011;128;48.770;9.198;2024-03-07T09:37:13;61.90;;;26.10;;
287;SDS011;128;48.770;9.198;2024-03-07T09:39:39;55.20;;;25.23;;
287;SDS011;128;48.770;9.198;2024-03-07T09:42:05;61.30;;;25.80;;
287;SDS011;128;48.770;9.198;2024-03-07T09:44:36;53.17;;;23.67;;
287;SDS011;128;48.770;9.198;2024-03-07T09:47:04;57.50;;;24.57;;
287;SDS011;128;48.770;9.198;2024-03-07T09:49:30;57.90;;;23.90;;
287;SDS011;128;48.770;9.198;2024-03-07T09:52:00;56.30;;;25.63;;
287;SDS011;128;48.770;9.198;2024-03-07T09:54:28;53.23;;;26.83;;
287;SDS011;128;48.770;9.198;2024-03-07T09:56:54;54.23;;;25.60;;
287;SDS011;128;48.770;9.198;2024-03-07T09:59:24;51.00;;;25.00;;
287;SDS011;128;48.770;9.198;2024-03-07T10:01:51;58.70;;;27.80;;
287;SDS011;128;48.770;9.198;2024-03-07T10:04:22;53.13;;;24.60;;
287;SDS011;128;48.770;9.198;2024-03-07T10:06:52;55.70;;;25.10;;
287;SDS011;128;48.770;9.198;2024-03-07T10:09:18;54.77;;;25.60;;
287;SDS011;128;48.770;9.198;2024-03-07T10:11:54;44.63;;;22.53;;
287;SDS011;128;48.770;9.198;2024-03-07T10:14:20;53.83;;;24.47;;
287;SDS011;128;48.770;9.198;2024-03-07T10:16:46;58.90;;;24.40;;
287;SDS011;128;48.770;9.198;2024-03-07T10:19:12;62.73;;;25.93;;
287;SDS011;128;48.770;9.198;2024-03-07T10:21:40;53.20;;;23.00;;
287;SDS011;128;48.770;9.198;2024-03-07T10:24:06;55.40;;;22.80;;
287;SDS011;128;48.770;9.198;2024-03-07T10:26:36;56.07;;;24.40;;
287;SDS011;128;48.770;9.198;2024-03-07T10:29:02;52.77;;;25.30;;
287;SDS011;128;48.770;9.198;2024-03-07T10:31:29;47.00;;;23.07;;
287;SDS011;128;48.770;9.198;2024-03-07T10:33:59;48.93;;;21.67;;
287;SDS011;128;48.770;9.198;2024-03-07T10:36:25;50.20;;;24.47;;
287;SDS011;128;48.770;9.198;2024-03-07T10:38:51;52.83;;;25.23;;
287;SDS011;128;48.770;9.198;2024-03-07T10:41:20;50.60;;;23.30;;
287;SDS011;128;48.770;9.198;2024-03-07T10:43:47;52.30;;;23.37;;
287;SDS011;128;48.770;9.198;2024-03-07T10:46:16;59.50;;;23.20;;
287;SDS011;128;48.770;9.198;2024-03-07T10:48:43;54.33;;;22.90;;
287;SDS011;128;48.770;9.198;2024-03-07T10:51:15;68.73;;;24.13;;
287;SDS011;128;48.770;9.198;2024-03-07T10:53:57;62.63;;;25.17;;
287;SDS011;128;48.770;9.198;2024-03-07T11:01:38;55.67;;;26.27;;
287;SDS011;128;48.770;9.198;2024-03-07T11:04:05;52.70;;;26.83;;
287;SDS011;128;48.770;9.198;2024-03-07T11:06:32;66.90;;;25.30;;
287;SDS011;128;48.770;9.198;2024-03-07T11:08:59;49.67;;;23.27;;
287;SDS011;128;48.770;9.198;2024-03-07T11:11:25;62.07;;;24.50;;
287;SDS011;128;48.770;9.198;2024-03-07T11:13:52;57.83;;;24.47;;
287;SDS011;128;48.770;9.198;2024-03-07T11:16:19;66.50;;;26.67;;
287;SDS011;128;48.770;9.198;2024-03-07T11:21:40;56.00;;;24.77;;
287;SDS011;128;48.770;9.198;2024-03-07T11:24:06;51.43;;;23.90;;
287;SDS011;128;48.770;9.198;2024-03-07T11:26:34;56.97;;;24.53;;
287;SDS011;128;48.770;9.198;2024-03-07T11:28:59;57.30;;;23.97;;
287;SDS011;128;48.770;9.198;2024-03-07T11:31:26;60.87;;;25.37;;
287;SDS011;128;48.770;9.198;2024-03-07T11:36:43;53.30;;;23.33;;
287;SDS011;128;48.770;9.198;2024-03-07T11:41:59;54.17;;;22.83;;
287;SDS011;128;48.770;9.198;2024-03-07T11:44:24;58.80;;;24.27;;
287;SDS011;128;48.770;9.198;2024-03-07T11:46:50;57.03;;;23.70;;
287;SDS011;128;48.770;9.198;2024-03-07T11:49:16;64.20;;;24.63;;
287;SDS011;128;48.770;9.198;2024-03-07T11:51:42;59.23;;;23.50;;
287;SDS011;128;48.770;9.198;2024-03-07T11:54:12;52.50;;;22.43;;
287;SDS011;128;48.770;9.198;2024-03-07T11:56:39;53.10;;;22.47;;
287;SDS011;128;48.770;9.198;2024-03-07T11:59:05;62.60;;;22.60;;
287;SDS011;128;48.770;9.198;2024-03-07T12:01:32;53.17;;;20.70;;
287;SDS011;128;48.770;9.198;2024-03-07T12:03:58;59.40;;;24.83;;
287;SDS011;128;48.770;9.198;2024-03-07T12:06:26;57.40;;;23.10;;
287;SDS011;128;48.770;9.198;2024-03-07T12:08:52;50.50;;;21.57;;
287;SDS011;128;48.770;9.198;2024-03-07T12:11:18;54.70;;;22.80;;
287;SDS011;128;48.770;9.198;2024-03-07T12:13:44;60.47;;;23.30;;
287;SDS011;128;48.770;9.198;2024-03-07T12:16:10;49.43;;;22.67;;
287;SDS011;128;48.770;9.198;2024-03-07T12:18:36;57.60;;;23.17;;
287;SDS011;128;48.770;9.198;2024-03-07T12:21:02;66.33;;;25.97;;
287;SDS011;128;48.770;9.198;2024-03-07T12:23:31;54.73;;;22.30;;
287;SDS011;128;48.770;9.198;2024-03-07T12:25:58;57.13;;;24.17;;
287;SDS011;128;48.770;9.198;2024-03-07T12:28:26;53.30;;;23.37;;
287;SDS011;128;48.770;9.198;2024-03-07T12:30:53;51.13;;;24.50;;
287;SDS011;128;48.770;9.198;2024-03-07T12:33:19;62.93;;;23.03;;
287;SDS011;128;48.770;9.198;2024-03-07T12:35:49;62.60;;;25.43;;
287;SDS011;128;48.770;9.198;2024-03-07T12:38:17;57.03;;;25.27;;
287;SDS011;128;48.770;9.198;2024-03-07T12:40:44;63.40;;;26.67;;
287;SDS011;128;48.770;9.198;2024-03-07T12:43:20;52.17;;;23.50;;
287;SDS011;128;48.770;9.198;2024-03-07T12:45:49;55.87;;;24.97;;
287;SDS011;128;48.770;9.198;2024-03-07T12:48:18;53.40;;;24.47;;
287;SDS011;128;48.770;9.198;2024-03-07T12:50:46;56.90;;;23.73;;
287;SDS011;128;48.770;9.198;2024-03-07T12:53:15;66.00;;;25.87;;
287;SDS011;128;48.770;9.198;2024-03-07T12:55:43;58.23;;;24.77;;
287;SDS011;128;48.770;9.198;2024-03-07T12:58:09;58.43;;;26.80;;
287;SDS011;128;48.770;9.198;2024-03-07T13:00:38;63.53;;;24.40;;
287;SDS011;128;48.770;9.198;2024-03-07T13:03:06;53.63;;;23.23;;
287;SDS011;128;48.770;9.198;2024-03-07T13:05:32;51.47;;;24.07;;
287;SDS011;128;48.770;9.198;2024-03-07T13:07:58;52.83;;;23.77;;
287;SDS011;128;48.770;9.198;2024-03-07T13:10:24;52.63;;;25.10;;
287;SDS011;128;48.770;9.198;2024-03-07T13:12:50;58.63;;;24.37;;
287;SDS011;128;48.770;9.198;2024-03-07T13:15:17;57.67;;;25.30;;
287;SDS011;128;48.770;9.198;2024-03-07T13:17:43;51.40;;;24.47;;
287;SDS011;128;48.770;9.198;2024-03-07T13:20:10;52.37;;;25.80;;
287;SDS011;128;48.770;9.198;2024-03-07T13:22:42;59.23;;;26.17;;
287;SDS011;128;48.770;9.198;2024-03-07T13:25:24;56.50;;;23.13;;
287;SDS011;128;48.770;9.198;2024-03-07T13:28:00;53.90;;;23.60;;
287;SDS011;128;48.770;9.198;2024-03-07T13:30:27;53.27;;;23.70;;
287;SDS011;128;48.770;9.198;2024-03-07T13:32:56;56.60;;;23.87;;
287;SDS011;128;48.770;9.198;2024-03-07T13:35:23;54.40;;;23.30;;
287;SDS011;128;48.770;9.198;2024-03-07T13:37:51;54.03;;;24.17;;
287;SDS011;128;48.770;9.198;2024-03-07T13:40:20;48.73;;;22.00;;
287;SDS011;128;48.770;9.198;2024-03-07T13:42:50;58.33;;;26.13;;
287;SDS011;128;48.770;9.198;2024-03-07T13:45:17;53.47;;;23.37;;
287;SDS011;128;48.770;9.198;2024-03-07T13:47:43;52.53;;;24.50;;
287;SDS011;128;48.770;9.198;2024-03-07T13:50:09;62.87;;;27.13;;
287;SDS011;128;48.770;9.198;2024-03-07T13:52:37;54.77;;;21.67;;
287;SDS011;128;48.770;9.198;2024-03-07T13:55:08;49.17;;;23.20;;
287;SDS011;128;48.770;9.198;2024-03-07T13:57:46;53.57;;;24.70;;
287;SDS011;128;48.770;9.198;2024-03-07T14:11:11;60.20;;;25.90;;
287;SDS011;128;48.770;9.198;2024-03-07T14:13:57;56.40;;;25.40;;
287;SDS011;128;48.770;9.198;2024-03-07T14:22:22;62.97;;;27.07;;
287;SDS011;128;48.770;9.198;2024-03-07T14:25:03;48.47;;;23.70;;
287;SDS011;128;48.770;9.198;2024-03-07T14:27:42;59.13;;;25.60;;
287;SDS011;128;48.770;9.198;2024-03-07T14:30:23;58.17;;;26.30;;
287;SDS011;128;48.770;9.198;2024-03-07T14:32:56;57.77;;;27.27;;
287;SDS011;128;48.770;9.198;2024-03-07T14:35:30;54.00;;;26.77;;
287;SDS011;128;48.770;9.198;2024-03-07T14:38:02;73.43;;;26.80;;
287;SDS011;128;48.770;9.198;2024-03-07T14:40:31;57.63;;;25.40;;
287;SDS011;128;48.770;9.198;2024-03-07T14:42:58;52.67;;;24.07;;
287;SDS011;128;48.770;9.198;2024-03-07T14:45:27;45.70;;;21.10;;
287;SDS011;128;48.770;9.198;2024-03-07T14:47:55;52.57;;;24.47;;
287;SDS011;128;48.770;9.198;2024-03-07T14:50:22;46.90;;;23.43;;
287;SDS011;128;48.770;9.198;2024-03-07T14:52:49;52.97;;;24.60;;
287;SDS011;128;48.770;9.198;2024-03-07T14:55:15;57.40;;;25.33;;
287;SDS011;128;48.770;9.198;2024-03-07T14:57:43;50.53;;;23.20;;
287;SDS011;128;48.770;9.198;2024-03-07T15:00:10;50.03;;;23.30;;
287;SDS011;128;48.770;9.198;2024-03-07T15:02:47;52.10;;;25.00;;
287;SDS011;128;48.770;9.198;2024-03-07T15:05:16;57.53;;;23.27;;
287;SDS011;128;48.770;9.198;2024-03-07T15:07:44;53.47;;;22.80;;
287;SDS011;128;48.770;9.198;2024-03-07T15:10:14;46.07;;;22.37;;
287;SDS011;128;48.770;9.198;2024-03-07T15:12:43;52.50;;;23.03;;
287;SDS011;128;48.770;9.198;2024-03-07T15:15:09;49.67;;;25.00;;
287;SDS011;128;48.770;9.198;2024-03-07T15:17:39;55.00;;;22.17;;
287;SDS011;128;48.770;9.198;2024-03-07T15:20:05;52.60;;;23.40;;
287;SDS011;128;48.770;9.198;2024-03-07T15:22:31;54.30;;;23.23;;
287;SDS011;128;48.770;9.198;2024-03-07T15:24:57;59.43;;;26.07;;
287;SDS011;128;48.770;9.198;2024-03-07T15:27:27;60.30;;;24.47;;
287;SDS011;128;48.770;9.198;2024-03-07T15:29:52;46.37;;;21.30;;
287;SDS011;128;48.770;9.198;2024-03-07T15:32:19;52.70;;;23.80;;
287;SDS011;128;48.770;9.198;2024-03-07T15:34:45;50.07;;;23.37;;
287;SDS011;128;48.770;9.198;2024-03-07T15:37:15;52.80;;;23.17;;
287;SDS011;128;48.770;9.198;2024-03-07T15:39:41;51.40;;;22.03;;
287;SDS011;128;48.770;9.198;2024-03-07T15:42:12;49.43;;;24.20;;